Time;durP1;ratioP1;P1;durP2;ratioP2;P2;SDS_P1;SDS_P2;PMS_P1;PMS_P2;Temp;Humidity;BMP_temperature;BMP_pressure;BME280_temperature;BME280_humidity;BME280_pressure;Samples;Min_cycle;Max_cycle;Signal;HPM_P1;HPM_P2
2022/06/05 00:01:10;;;;;;;2.08;0.60;;;;;;;22.31;32.81;101265.81;5053305;28;20029;-64
2022/06/05 00:03:48;;;;;;;2.90;0.60;;;;;;;22.30;32.08;101256.00;5071633;28;20036;-63
2022/06/05 00:06:26;;;;;;;3.72;0.70;;;;;;;21.99;33.11;101255.16;5071074;28;20090;-65
2022/06/05 00:09:01;;;;;;;2.72;0.52;;;;;;;21.95;33.45;101255.97;5071725;28;20048;-63
2022/06/05 00:11:36;;;;;;;2.13;0.80;;;;;;;21.94;34.32;101257.88;5071461;28;20043;-62
2022/06/05 00:14:02;;;;;;;4.20;1.13;;;;;;;21.65;34.09;101257.56;5071608;28;20039;-62
2022/06/05 00:16:29;;;;;;;4.28;0.63;;;;;;;21.55;34.88;101252.94;5071382;28;20304;-62
2022/06/05 00:18:56;;;;;;;2.05;0.70;;;;;;;21.57;34.47;101250.75;5071557;28;20039;-61
2022/06/05 00:21:23;;;;;;;2.10;0.70;;;;;;;21.43;34.50;101251.50;5051151;28;20029;-61
2022/06/05 00:23:50;;;;;;;1.58;0.60;;;;;;;21.40;34.22;101257.50;5050906;28;20032;-61
2022/06/05 00:26:45;;;;;;;0.90;0.60;;;;;;;21.08;34.59;101255.72;5050992;28;20051;-61
2022/06/05 00:29:43;;;;;;;2.17;0.50;;;;;;;21.14;34.85;101249.22;5043963;28;20093;-61
2022/06/05 00:32:21;;;;;;;2.10;0.70;;;;;;;21.12;35.79;101239.69;5054873;28;20065;-61
2022/06/05 00:34:47;;;;;;;3.28;0.70;;;;;;;21.17;35.58;101245.16;5055352;28;20029;-62
2022/06/05 00:37:20;;;;;;;1.20;0.63;;;;;;;20.99;35.83;101232.84;5056124;28;20012;-61
2022/06/05 00:40:10;;;;;;;1.02;0.60;;;;;;;20.97;36.23;101226.84;5057133;28;20021;-61
2022/06/05 00:42:37;;;;;;;1.55;0.57;;;;;;;20.97;36.04;101232.28;5054339;28;20048;-61
2022/06/05 00:45:11;;;;;;;1.00;0.70;;;;;;;20.99;35.89;101230.13;5054211;28;20021;-61
2022/06/05 00:47:39;;;;;;;1.00;0.73;;;;;;;21.01;35.25;101231.50;5073314;28;20499;-61
2022/06/05 00:50:09;;;;;;;1.88;1.00;;;;;;;20.96;34.33;101233.38;5073549;28;20331;-61
2022/06/05 00:52:38;;;;;;;4.35;1.35;;;;;;;20.96;33.63;101233.38;5071793;28;20039;-62
2022/06/05 00:55:05;;;;;;;2.33;0.80;;;;;;;20.95;34.15;101234.47;5066623;28;20036;-61
2022/06/05 00:57:34;;;;;;;4.45;0.52;;;;;;;20.85;33.87;101223.53;5054735;28;20017;-60
2022/06/05 01:00:22;;;;;;;0.85;0.50;;;;;;;21.08;32.67;101218.44;5054509;28;20143;-60
2022/06/05 01:02:52;;;;;;;2.42;0.55;;;;;;;21.15;33.38;101222.81;5054676;28;20021;-59
2022/06/05 01:05:20;;;;;;;0.40;0.40;;;;;;;21.12;32.65;101223.38;5054346;28;20063;-60
2022/06/05 01:07:47;;;;;;;2.38;0.50;;;;;;;21.01;33.34;101228.75;5072760;28;20683;-60
2022/06/05 01:10:16;;;;;;;1.80;0.40;;;;;;;20.85;33.24;101223.53;5074118;28;20103;-60
2022/06/05 01:13:15;;;;;;;2.03;0.43;;;;;;;20.70;34.00;101229.69;5073991;28;20024;-64
2022/06/05 01:16:05;;;;;;;4.80;0.95;;;;;;;20.63;33.47;101227.22;5002500;28;20105;-65
2022/06/05 01:19:00;;;;;;;1.33;0.50;;;;;;;20.47;33.31;101223.59;5074207;28;20037;-66
2022/06/05 01:21:56;;;;;;;0.40;0.40;;;;;;;20.46;33.86;101221.13;5073998;28;20059;-65
2022/06/05 01:24:43;;;;;;;1.20;0.50;;;;;;;20.30;34.08;101217.47;5022850;28;20039;-66
2022/06/05 01:27:14;;;;;;;5.53;0.80;;;;;;;20.21;34.35;101232.63;5074199;28;20086;-65
2022/06/05 01:29:47;;;;;;;1.48;0.60;;;;;;;20.17;33.37;101228.81;5069612;28;20075;-66
2022/06/05 01:32:37;;;;;;;0.63;0.45;;;;;;;19.97;34.58;101224.00;5073523;28;20398;-66
2022/06/05 01:35:17;;;;;;;2.35;0.60;;;;;;;19.95;34.51;101232.44;5070574;28;20381;-66
2022/06/05 01:37:55;;;;;;;1.30;0.50;;;;;;;20.01;35.29;101230.56;5060213;28;20090;-66
2022/06/05 01:40:37;;;;;;;1.25;0.70;;;;;;;20.00;35.74;101231.66;5068015;28;20028;-66
2022/06/05 01:43:38;;;;;;;2.05;0.57;;;;;;;20.01;36.45;101230.56;5063258;28;20055;-65
2022/06/05 01:46:10;;;;;;;1.33;0.75;;;;;;;20.10;35.90;101231.75;5020924;28;20396;-66
2022/06/05 01:48:55;;;;;;;1.33;0.70;;;;;;;20.21;35.59;101222.59;5056912;28;20473;-66
2022/06/05 01:51:34;;;;;;;0.50;0.35;;;;;;;20.22;36.32;101221.50;5068363;28;20115;-66
2022/06/05 01:54:08;;;;;;;1.20;0.60;;;;;;;20.12;35.93;101226.84;5073398;28;20028;-67
2022/06/05 01:56:44;;;;;;;1.27;0.40;;;;;;;20.14;35.91;101223.88;5083370;28;20027;-67
2022/06/05 01:59:15;;;;;;;1.58;0.50;;;;;;;20.05;35.65;101226.25;5053637;28;20025;-66
2022/06/05 02:01:48;;;;;;;1.73;0.70;;;;;;;19.92;35.58;101218.53;5067222;28;20046;-66
2022/06/05 02:04:57;;;;;;;2.88;0.38;;;;;;;19.80;35.73;101213.28;5073634;28;20023;-66
2022/06/05 02:07:38;;;;;;;4.25;0.60;;;;;;;19.80;36.31;101215.19;4972530;28;20678;-66
2022/06/05 02:10:33;;;;;;;1.40;0.40;;;;;;;19.72;36.82;101225.44;4972631;28;20031;-66
2022/06/05 02:13:01;;;;;;;1.58;0.50;;;;;;;19.62;37.25;101232.66;5021223;28;20037;-67
2022/06/05 02:15:29;;;;;;;0.90;0.40;;;;;;;19.59;37.86;101225.84;5068252;28;20063;-66
2022/06/05 02:17:58;;;;;;;1.13;0.50;;;;;;;19.36;38.17;101226.13;5073558;28;20032;-66
2022/06/05 02:20:24;;;;;;;1.20;0.50;;;;;;;19.24;39.09;101215.41;5072918;28;20028;-66
2022/06/05 02:22:51;;;;;;;1.00;0.65;;;;;;;19.23;39.49;101203.72;5073139;28;20491;-66
2022/06/05 02:25:21;;;;;;;1.38;0.57;;;;;;;19.26;40.38;101203.19;5063078;28;20028;-67
2022/06/05 02:27:48;;;;;;;1.58;0.60;;;;;;;19.08;41.62;101189.97;5052992;28;20032;-66
2022/06/05 02:30:16;;;;;;;1.60;0.60;;;;;;;19.11;40.70;101194.91;5034674;28;20040;-67
2022/06/05 02:32:57;;;;;;;1.42;0.52;;;;;;;19.03;42.51;101200.78;5070114;28;20028;-66
2022/06/05 02:35:32;;;;;;;1.13;0.50;;;;;;;19.02;42.44;101179.34;5072717;28;20024;-66
2022/06/05 02:38:23;;;;;;;1.65;0.50;;;;;;;19.02;44.87;101182.06;5057670;28;20428;-66
2022/06/05 02:41:07;;;;;;;1.95;0.60;;;;;;;18.95;45.12;101177.63;5052662;28;20541;-67
2022/06/05 02:47:22;;;;;;;1.63;0.90;;;;;;;19.01;49.24;101186.66;5067460;28;20109;-67
2022/06/05 02:50:06;;;;;;;2.50;0.70;;;;;;;18.85;51.42;101184.84;5056805;28;20477;-66
2022/06/05 02:52:33;;;;;;;1.63;0.70;;;;;;;18.96;51.35;101192.84;5067964;28;20051;-66
2022/06/05 02:55:09;;;;;;;2.28;0.77;;;;;;;18.97;51.43;101194.47;5071672;28;20024;-66
2022/06/05 02:57:36;;;;;;;1.10;0.60;;;;;;;19.00;50.28;101204.00;5060871;28;20029;-60
2022/06/05 03:00:07;;;;;;;1.58;0.80;;;;;;;19.01;49.82;101211.06;5071994;28;20086;-63
2022/06/05 03:05:17;;;;;;;3.70;0.87;;;;;;;18.85;50.21;101207.34;5067391;28;20036;-63
2022/06/05 03:07:44;;;;;;;1.88;0.60;;;;;;;18.97;49.75;101193.66;5071282;28;20024;-63
2022/06/05 03:10:10;;;;;;;1.27;0.80;;;;;;;18.96;50.39;101186.59;5087828;28;20082;-63
2022/06/05 03:12:37;;;;;;;2.78;0.70;;;;;;;19.04;50.41;101185.31;5082909;28;20037;-65
2022/06/05 03:15:04;;;;;;;3.47;0.90;;;;;;;19.06;50.36;101177.75;5071437;28;20025;-50
2022/06/05 03:17:30;;;;;;;2.85;0.88;;;;;;;19.02;50.30;101172.00;5072035;28;20124;-56
2022/06/05 03:19:58;;;;;;;2.00;0.70;;;;;;;18.99;50.53;101172.53;5055406;28;20108;-57
2022/06/05 03:22:26;;;;;;;3.53;0.82;;;;;;;18.86;51.28;101175.63;5058917;28;20035;-57
2022/06/05 03:24:53;;;;;;;2.92;0.73;;;;;;;18.93;51.15;101179.78;5072163;28;20032;-56
2022/06/05 03:27:20;;;;;;;5.40;1.10;;;;;;;19.05;51.13;101182.38;5072010;28;20029;-55
2022/06/05 03:29:46;;;;;;;2.65;0.90;;;;;;;19.08;51.88;101184.56;5071572;28;20492;-57
2022/06/05 03:32:13;;;;;;;2.30;0.88;;;;;;;19.10;51.89;101176.16;5059382;28;20056;-57
2022/06/05 03:34:40;;;;;;;3.35;0.70;;;;;;;19.05;53.24;101159.84;5049784;28;20111;-57
2022/06/05 03:37:06;;;;;;;2.80;0.70;;;;;;;19.14;53.57;101167.25;5051936;28;20462;-56
2022/06/05 03:39:33;;;;;;;1.15;0.75;;;;;;;18.99;54.70;101177.97;5059858;28;20052;-56
2022/06/05 03:41:59;;;;;;;0.88;0.65;;;;;;;19.05;55.66;101179.66;5071640;28;20020;-61
2022/06/05 03:44:29;;;;;;;1.50;0.80;;;;;;;18.88;56.72;101177.03;5071613;28;20021;-56
2022/06/05 03:46:55;;;;;;;3.20;1.00;;;;;;;18.99;56.32;101177.97;5071773;28;20031;-56
2022/06/05 03:49:21;;;;;;;2.05;0.90;;;;;;;19.00;56.15;101176.88;5071968;28;20032;-56
2022/06/05 03:51:48;;;;;;;2.17;0.80;;;;;;;18.94;56.59;101175.19;5071396;28;20036;-56
2022/06/05 03:54:14;;;;;;;3.25;1.02;;;;;;;19.06;56.02;101184.00;5071631;28;20036;-57
2022/06/05 03:56:40;;;;;;;2.83;1.10;;;;;;;19.05;55.98;101185.09;5037141;28;20086;-57
2022/06/05 03:59:06;;;;;;;2.97;1.00;;;;;;;18.99;56.30;101181.50;5071488;28;20137;-57
2022/06/05 04:01:33;;;;;;;3.17;1.00;;;;;;;18.97;57.13;101170.06;5071594;28;20032;-57
2022/06/05 04:03:59;;;;;;;1.02;0.68;;;;;;;18.89;57.17;101165.09;5071574;28;20028;-57
2022/06/05 04:06:29;;;;;;;2.45;1.00;;;;;;;19.00;56.66;101168.75;5071775;28;20093;-57
2022/06/05 04:09:02;;;;;;;2.30;1.10;;;;;;;18.95;56.75;101174.09;5064435;28;20028;-57
2022/06/05 04:11:31;;;;;;;1.23;0.80;;;;;;;18.80;57.53;101174.72;5054164;28;20174;-57
2022/06/05 04:13:58;;;;;;;1.48;1.00;;;;;;;18.86;56.67;101187.28;5054667;28;20029;-57
2022/06/05 04:16:27;;;;;;;1.95;1.13;;;;;;;18.94;56.66;101184.13;5062440;28;20032;-57
2022/06/05 04:18:54;;;;;;;3.88;0.90;;;;;;;18.84;56.56;101181.31;5075393;28;20477;-56
2022/06/05 04:21:30;;;;;;;1.48;1.20;;;;;;;18.75;57.66;101184.69;5075329;28;20098;-57
2022/06/05 04:23:57;;;;;;;3.63;1.00;;;;;;;18.75;58.12;101176.56;5055524;28;20040;-56
2022/06/05 04:26:26;;;;;;;2.80;0.80;;;;;;;18.82;57.84;101175.31;5068983;28;20056;-56
2022/06/05 04:28:54;;;;;;;3.03;1.17;;;;;;;18.81;58.13;101173.66;5074956;28;20603;-56
2022/06/05 04:31:23;;;;;;;2.65;1.20;;;;;;;18.85;57.68;101169.38;5069414;28;20067;-56
2022/06/05 04:33:50;;;;;;;3.05;1.00;;;;;;;18.80;58.19;101177.44;5075044;28;20115;-56
2022/06/05 04:36:17;;;;;;;3.85;1.02;;;;;;;18.74;58.38;101181.16;5075058;28;20538;-56
2022/06/05 04:38:43;;;;;;;1.90;0.90;;;;;;;18.86;57.40;101179.16;5075003;28;20465;-56
2022/06/05 04:41:10;;;;;;;3.20;1.10;;;;;;;18.95;57.76;101184.97;5074394;28;20036;-56
2022/06/05 04:43:37;;;;;;;1.70;0.80;;;;;;;18.85;58.74;101207.34;5074834;28;20039;-56
2022/06/05 04:46:04;;;;;;;2.05;1.00;;;;;;;18.85;59.04;101201.09;5057308;28;20095;-56
2022/06/05 04:48:31;;;;;;;3.53;0.88;;;;;;;18.83;58.91;101206.78;5074836;28;20097;-55
2022/06/05 04:50:58;;;;;;;2.42;0.93;;;;;;;18.93;59.04;101208.78;5074510;28;20056;-56
2022/06/05 04:53:25;;;;;;;1.83;1.02;;;;;;;18.88;59.68;101214.19;5075464;28;20119;-56
2022/06/05 04:55:51;;;;;;;1.77;0.80;;;;;;;19.19;59.24;101208.03;5075076;28;20487;-56
2022/06/05 04:58:17;;;;;;;4.20;1.00;;;;;;;19.22;57.95;101212.13;5052491;28;20021;-56
2022/06/05 05:00:43;;;;;;;2.95;1.50;;;;;;;19.18;57.96;101203.66;5054350;28;20029;-56
2022/06/05 05:03:10;;;;;;;2.30;1.05;;;;;;;19.40;57.86;101202.81;5054765;28;20108;-56
2022/06/05 05:05:36;;;;;;;2.17;1.23;;;;;;;19.34;58.00;101201.94;5070963;28;20029;-56
2022/06/05 05:08:02;;;;;;;1.52;0.80;;;;;;;19.44;57.19;101206.66;5074778;28;20036;-56
2022/06/05 05:10:28;;;;;;;2.30;1.00;;;;;;;19.42;57.76;101201.47;5074274;28;20066;-56
2022/06/05 05:12:55;;;;;;;1.98;0.75;;;;;;;19.25;58.16;101198.03;5074873;28;20422;-56
2022/06/05 05:15:21;;;;;;;1.85;1.00;;;;;;;19.40;57.56;101192.78;5074144;28;20051;-56
2022/06/05 05:17:47;;;;;;;3.53;0.95;;;;;;;19.32;58.11;101198.69;5074474;28;20017;-56
2022/06/05 05:20:13;;;;;;;1.83;0.85;;;;;;;19.33;58.37;101208.47;5072821;28;20025;-56
2022/06/05 05:22:40;;;;;;;3.92;1.10;;;;;;;19.17;59.11;101202.03;5067819;28;20455;-56
2022/06/05 05:25:09;;;;;;;1.65;0.65;;;;;;;19.24;59.27;101207.25;5071865;28;20374;-56
2022/06/05 05:27:36;;;;;;;1.42;1.00;;;;;;;19.13;60.26;101197.38;5074320;28;20028;-56
2022/06/05 05:30:04;;;;;;;1.65;0.90;;;;;;;19.22;60.20;101210.25;5072576;28;20024;-56
2022/06/05 05:32:31;;;;;;;2.15;0.60;;;;;;;19.11;60.59;101211.19;5073332;28;20108;-56
2022/06/05 05:34:57;;;;;;;0.75;0.60;;;;;;;19.10;61.26;101208.72;5074258;28;20403;-56
2022/06/05 05:37:23;;;;;;;1.45;0.80;;;;;;;19.24;60.33;101209.97;5072421;28;20089;-56
2022/06/05 05:42:34;;;;;;;1.43;0.50;;;;;;;19.04;62.07;101207.84;5068130;28;20043;-56
2022/06/05 05:45:00;;;;;;;2.47;0.88;;;;;;;18.93;62.39;101222.34;5066214;28;20035;-56
2022/06/05 05:47:29;;;;;;;1.58;0.90;;;;;;;18.85;62.23;101218.19;5054069;28;20424;-56
2022/06/05 05:49:59;;;;;;;1.45;0.80;;;;;;;18.92;62.56;101213.41;5056163;28;20025;-56
2022/06/05 05:52:26;;;;;;;0.85;0.70;;;;;;;18.87;62.56;101212.50;5072805;28;20024;-56
2022/06/05 05:54:52;;;;;;;1.13;0.65;;;;;;;18.85;63.12;101211.94;5054557;28;20036;-56
2022/06/05 05:57:20;;;;;;;1.38;0.85;;;;;;;18.93;63.47;101216.91;5072677;28;20029;-56
2022/06/05 05:59:47;;;;;;;2.30;0.68;;;;;;;18.84;64.58;101221.16;5072390;28;20032;-56
2022/06/05 06:02:18;;;;;;;0.95;0.80;;;;;;;18.86;64.21;101214.41;5073518;28;20035;-56
2022/06/05 06:04:45;;;;;;;3.20;1.17;;;;;;;18.89;64.35;101213.09;5072644;28;20025;-56
2022/06/05 06:07:12;;;;;;;1.55;0.90;;;;;;;18.87;64.47;101209.78;5073220;28;20036;-56
2022/06/05 06:09:39;;;;;;;1.52;0.70;;;;;;;18.85;63.98;101212.78;5070814;28;20481;-56
2022/06/05 06:12:06;;;;;;;2.13;0.70;;;;;;;18.96;64.11;101213.72;5073564;28;20032;-56
2022/06/05 06:14:33;;;;;;;1.67;0.60;;;;;;;18.95;64.52;101218.31;5071413;28;20401;-56
2022/06/05 06:16:59;;;;;;;1.50;0.73;;;;;;;18.98;64.81;101222.41;5072309;28;20056;-56
2022/06/05 06:19:26;;;;;;;2.75;0.77;;;;;;;18.86;66.50;101219.81;5072408;28;20461;-56
2022/06/05 06:21:52;;;;;;;1.95;0.90;;;;;;;18.88;66.31;101216.88;5054168;28;20043;-56
2022/06/05 06:24:18;;;;;;;1.10;0.70;;;;;;;18.85;65.72;101214.66;5071160;28;20025;-56
2022/06/05 06:26:45;;;;;;;1.45;0.90;;;;;;;18.90;66.08;101220.16;5071366;28;20044;-56
2022/06/05 06:29:11;;;;;;;6.22;0.73;;;;;;;18.91;65.31;101211.75;5072449;28;20103;-56
2022/06/05 06:31:39;;;;;;;2.13;0.80;;;;;;;18.69;66.47;101214.47;5070682;28;20473;-56
2022/06/05 06:34:06;;;;;;;1.15;0.60;;;;;;;18.85;65.95;101209.25;5070516;23;20040;-56
2022/06/05 06:36:35;;;;;;;1.48;0.70;;;;;;;18.83;66.44;101219.53;5029832;28;20049;-56
2022/06/05 06:39:01;;;;;;;0.93;0.68;;;;;;;18.88;66.59;101219.59;5064880;28;20027;-57
2022/06/05 06:41:28;;;;;;;1.58;0.77;;;;;;;18.75;67.11;101209.09;5070140;28;20044;-56
2022/06/05 06:43:54;;;;;;;0.93;0.70;;;;;;;18.66;67.71;101208.72;5060679;28;20035;-56
2022/06/05 06:46:21;;;;;;;0.75;0.65;;;;;;;18.58;69.21;101196.38;5063452;28;20100;-56
2022/06/05 06:48:47;;;;;;;3.13;1.05;;;;;;;18.60;69.03;101199.69;5070947;28;20033;-56
2022/06/05 06:51:15;;;;;;;3.55;0.95;;;;;;;18.38;69.85;101205.06;5059038;28;20028;-56
2022/06/05 06:53:42;;;;;;;2.00;0.80;;;;;;;18.13;71.75;101202.78;5069529;28;20032;-55
2022/06/05 06:56:12;;;;;;;0.90;0.80;;;;;;;18.27;72.29;101202.47;5068781;28;20099;-56
2022/06/05 06:58:43;;;;;;;1.55;0.80;;;;;;;18.20;72.58;101202.59;5068186;28;20082;-56
2022/06/05 07:01:10;;;;;;;2.30;0.63;;;;;;;18.08;73.34;101216.25;5071046;28;20020;-55
2022/06/05 07:03:37;;;;;;;1.20;0.85;;;;;;;18.09;73.46;101223.28;5063705;28;20086;-56
2022/06/05 07:06:07;;;;;;;0.55;0.50;;;;;;;18.10;73.62;101214.13;5063779;28;20048;-56
2022/06/05 07:08:34;;;;;;;1.83;0.70;;;;;;;18.11;73.47;101210.34;5059761;28;20052;-56
2022/06/05 07:11:01;;;;;;;1.98;0.82;;;;;;;18.14;74.13;101217.97;5070086;28;20044;-56
2022/06/05 07:13:27;;;;;;;1.95;0.80;;;;;;;18.23;73.99;101204.00;5051003;28;20059;-56
2022/06/05 07:15:53;;;;;;;3.03;0.82;;;;;;;18.15;74.58;101213.38;5055424;28;20038;-56
2022/06/05 07:18:19;;;;;;;1.85;0.70;;;;;;;18.08;74.69;101205.41;5071014;28;20016;-56
2022/06/05 07:20:46;;;;;;;1.08;0.80;;;;;;;18.16;74.78;101210.44;5070287;28;20107;-54
2022/06/05 07:23:13;;;;;;;1.48;0.70;;;;;;;18.19;74.27;101199.06;5072496;28;20082;-56
2022/06/05 07:25:49;;;;;;;1.75;1.25;;;;;;;18.11;75.04;101196.81;5069882;28;20020;-55
2022/06/05 07:28:15;;;;;;;2.58;0.77;;;;;;;17.83;76.19;101186.06;5035450;28;20049;-56
2022/06/05 07:30:46;;;;;;;0.73;0.63;;;;;;;17.74;77.12;101187.50;5055721;28;20025;-56
2022/06/05 07:33:13;;;;;;;1.58;0.77;;;;;;;17.87;76.42;101198.00;5052365;28;20111;-56
2022/06/05 07:35:41;;;;;;;1.55;0.95;;;;;;;17.79;76.86;101183.00;5071145;28;20021;-56
2022/06/05 07:38:08;;;;;;;3.17;0.77;;;;;;;17.78;77.28;101196.81;5071791;28;20135;-56
2022/06/05 07:40:42;;;;;;;1.08;0.60;;;;;;;17.77;76.76;101203.28;5071122;28;20548;-56
2022/06/05 07:43:10;;;;;;;2.25;0.82;;;;;;;17.88;77.32;101199.69;5071687;28;20036;-56
2022/06/05 07:45:44;;;;;;;3.47;1.20;;;;;;;17.63;77.50;101195.44;5054710;28;20037;-56
2022/06/05 07:48:11;;;;;;;1.85;0.88;;;;;;;17.90;76.54;101184.00;5069849;28;20389;-56
2022/06/05 07:54:26;;;;;;;1.52;0.90;;;;;;;18.00;76.57;101181.47;5071452;28;20020;-57
2022/06/05 07:56:07;;;;;;;1.52;1.10;;;;;;;17.78;77.30;101183.25;5071942;28;20040;-57
2022/06/05 07:58:34;;;;;;;2.08;1.02;;;;;;;17.60;77.95;101185.09;5067592;28;20029;-57
2022/06/05 08:01:00;;;;;;;1.40;0.98;;;;;;;17.66;77.82;101177.91;5055678;28;20075;-57
2022/06/05 08:03:26;;;;;;;3.05;1.08;;;;;;;17.68;77.23;101173.84;5071883;28;20029;-56
2022/06/05 08:05:52;;;;;;;2.70;1.00;;;;;;;17.65;77.50;101177.03;5061044;28;20055;-56
2022/06/05 08:08:18;;;;;;;1.00;0.80;;;;;;;17.58;77.67;101178.28;5049108;28;20037;-56
2022/06/05 08:10:45;;;;;;;1.00;0.90;;;;;;;17.63;78.01;101167.53;5049014;28;20070;-56
2022/06/05 08:13:11;;;;;;;1.13;1.00;;;;;;;17.69;77.78;101159.25;5071736;28;20052;-56
2022/06/05 08:15:37;;;;;;;1.73;1.00;;;;;;;17.74;78.25;101160.44;5044318;28;20485;-56
2022/06/05 08:18:04;;;;;;;1.67;1.25;;;;;;;17.84;77.64;101147.06;5041180;28;20024;-56
2022/06/05 08:20:30;;;;;;;2.33;1.10;;;;;;;17.87;77.66;101149.28;5059918;28;20029;-56
2022/06/05 08:22:56;;;;;;;2.28;1.10;;;;;;;17.81;78.36;101150.25;5082596;28;20465;-57
2022/06/05 08:25:22;;;;;;;4.05;1.13;;;;;;;17.86;77.61;101147.63;5051606;28;20072;-56
2022/06/05 08:27:50;;;;;;;3.80;0.93;;;;;;;17.84;77.73;101152.50;5062110;28;20025;-56
2022/06/05 08:30:16;;;;;;;0.90;0.70;;;;;;;17.83;77.51;101151.66;5053404;28;20029;-56
2022/06/05 08:32:42;;;;;;;2.58;0.95;;;;;;;17.95;76.79;101162.41;5070056;28;20030;-57
2022/06/05 08:35:08;;;;;;;1.45;0.85;;;;;;;18.05;76.77;101161.75;5051907;28;20045;-56
2022/06/05 08:43:21;;;;;;;3.78;1.50;;;;;;;17.92;76.86;101181.84;5064658;28;20089;-56
2022/06/05 08:46:23;;;;;;;3.28;1.10;;;;;;;17.98;76.00;101186.28;5070327;28;20025;-56
2022/06/05 08:49:06;;;;;;;5.32;1.23;;;;;;;18.11;75.59;101179.72;5049639;28;20044;-56
2022/06/05 08:51:54;;;;;;;2.30;1.20;;;;;;;17.99;76.58;101171.69;5048270;28;20115;-56
2022/06/05 08:54:44;;;;;;;3.08;1.30;;;;;;;18.01;76.63;101163.31;5039845;28;20039;-56
2022/06/05 08:57:36;;;;;;;3.17;1.00;;;;;;;18.04;76.56;101151.97;5056294;28;20044;-57
2022/06/05 09:00:17;;;;;;;0.82;0.80;;;;;;;18.03;76.18;101139.50;5074702;28;20028;-57
2022/06/05 09:03:11;;;;;;;1.65;0.80;;;;;;;18.01;76.62;101138.94;5072373;28;20111;-57
2022/06/05 09:05:47;;;;;;;2.65;0.90;;;;;;;17.94;77.17;101139.13;5064052;28;20032;-57
2022/06/05 09:08:16;;;;;;;2.22;0.90;;;;;;;17.96;77.29;101142.38;5066307;28;20119;-56
2022/06/05 09:10:52;;;;;;;3.95;0.65;;;;;;;17.86;77.69;101139.50;5071910;28;20032;-56
2022/06/05 09:13:35;;;;;;;2.00;0.95;;;;;;;17.79;78.58;101141.56;5018212;28;20059;-56
2022/06/05 09:16:05;;;;;;;0.95;0.55;;;;;;;17.79;78.51;101139.69;5037028;28;20060;-57
2022/06/05 09:18:43;;;;;;;1.13;0.32;;;;;;;17.67;79.27;101145.16;5085143;28;20060;-56
2022/06/05 09:21:23;;;;;;;1.00;0.50;;;;;;;17.62;80.10;101139.66;5052197;28;20074;-57
2022/06/05 09:23:59;;;;;;;1.45;0.40;;;;;;;17.68;79.80;101144.09;5053158;28;20044;-57
2022/06/05 09:26:52;;;;;;;0.98;0.40;;;;;;;17.83;79.23;101130.00;5071228;28;20069;-57
2022/06/05 09:29:44;;;;;;;1.00;0.30;;;;;;;17.83;78.89;101134.59;5072560;28;20043;-56
2022/06/05 09:32:35;;;;;;;0.65;0.45;;;;;;;17.64;80.00;101129.38;5033834;28;20029;-57
2022/06/05 09:35:21;;;;;;;0.80;0.40;;;;;;;17.70;79.81;101133.00;5034042;28;20042;-56
2022/06/05 09:37:51;;;;;;;0.68;0.40;;;;;;;17.72;79.64;101138.19;5040300;28;20273;-57
2022/06/05 09:40:38;;;;;;;3.22;0.70;;;;;;;17.75;80.25;101137.72;5053851;28;20150;-57
2022/06/05 09:43:07;;;;;;;1.50;0.70;;;;;;;17.80;80.13;101133.19;5060012;28;20461;-57
2022/06/05 09:45:45;;;;;;;1.00;0.40;;;;;;;17.76;80.50;101136.63;5058879;28;20127;-57
2022/06/05 09:48:39;;;;;;;1.25;0.20;;;;;;;17.46;81.68;101135.03;5034061;28;20033;-57
2022/06/05 09:51:15;;;;;;;1.33;0.20;;;;;;;17.53;81.37;101129.47;5036392;28;20059;-56
2022/06/05 09:54:07;;;;;;;2.53;0.30;;;;;;;17.57;81.45;101117.09;5052609;28;20086;-56
2022/06/05 09:58:24;;;;;;;0.57;0.30;;;;;;;17.59;80.92;101125.78;5058716;28;20433;-56
2022/06/05 09:59:29;;;;;;;1.80;0.30;;;;;;;17.45;81.73;101102.81;5061867;28;20029;-56
2022/06/05 10:01:59;;;;;;;0.47;0.30;;;;;;;17.50;81.94;101102.91;5068833;28;20076;-56
2022/06/05 10:04:30;;;;;;;0.75;0.38;;;;;;;17.39;82.96;101104.63;5059003;28;20028;-56
2022/06/05 10:07:05;;;;;;;0.43;0.30;;;;;;;17.37;83.23;101104.84;5073632;28;20017;-56
2022/06/05 10:09:34;;;;;;;0.40;0.40;;;;;;;17.44;82.19;101115.53;5071548;28;20028;-56
2022/06/05 10:12:17;;;;;;;0.82;0.43;;;;;;;17.48;81.78;101122.06;5071441;28;20032;-56
2022/06/05 10:15:25;;;;;;;0.80;0.77;;;;;;;17.49;81.41;101126.44;5052529;28;20025;-57
2022/06/05 10:18:01;;;;;;;1.73;1.00;;;;;;;17.45;80.61;101128.00;5038982;28;20067;-57
2022/06/05 10:20:50;;;;;;;4.65;1.45;;;;;;;17.22;81.75;101123.53;5061987;28;20021;-57
2022/06/05 10:23:25;;;;;;;2.38;1.20;;;;;;;17.25;81.50;101123.03;5049882;28;20448;-57
2022/06/05 10:26:17;;;;;;;2.55;1.40;;;;;;;17.23;81.36;101125.19;5052882;28;20539;-57
2022/06/05 10:28:45;;;;;;;4.55;1.50;;;;;;;17.15;81.76;101120.97;5051520;28;20033;-57
2022/06/05 10:31:25;;;;;;;3.05;1.48;;;;;;;17.27;81.08;101112.81;5058988;28;20407;-57
2022/06/05 10:34:30;;;;;;;1.20;1.08;;;;;;;17.21;81.17;101116.47;5050018;28;20490;-57
2022/06/05 10:37:09;;;;;;;1.42;0.82;;;;;;;17.34;81.26;101107.25;5053069;28;20044;-57
2022/06/05 10:40:04;;;;;;;3.28;1.05;;;;;;;17.36;81.08;101096.97;5032355;28;20436;-57
2022/06/05 10:42:39;;;;;;;1.03;0.60;;;;;;;17.29;81.73;101099.84;5022676;28;20413;-57
2022/06/05 10:45:22;;;;;;;0.85;0.85;;;;;;;17.24;81.79;101098.94;5032263;28;20021;-57
2022/06/05 10:48:28;;;;;;;2.30;0.60;;;;;;;17.20;81.94;101081.56;5032614;28;20029;-57
2022/06/05 10:51:11;;;;;;;1.08;0.60;;;;;;;17.15;82.81;101080.38;5041885;28;20628;-57
2022/06/05 10:53:44;;;;;;;1.13;0.60;;;;;;;17.26;81.92;101085.97;5066843;28;20033;-56
2022/06/05 10:56:20;;;;;;;1.38;0.65;;;;;;;17.17;82.41;101074.75;5064176;28;20033;-57
2022/06/05 10:59:11;;;;;;;2.03;0.60;;;;;;;17.08;83.71;101062.69;5065828;28;20485;-56
2022/06/05 11:02:16;;;;;;;0.80;0.70;;;;;;;17.18;82.95;101059.34;5052106;28;20032;-56
2022/06/05 11:05:06;;;;;;;0.98;0.68;;;;;;;17.03;83.25;101066.13;5054782;28;20435;-57
2022/06/05 11:07:51;;;;;;;0.63;0.63;;;;;;;17.15;82.92;101066.88;5072238;28;20040;-55
2022/06/05 11:13:54;;;;;;;1.20;0.60;;;;;;;17.07;82.76;101061.88;5040595;28;20047;-56
2022/06/05 11:16:27;;;;;;;1.25;0.82;;;;;;;17.15;82.09;101063.34;5072138;28;20543;-56
2022/06/05 11:19:20;;;;;;;1.42;0.60;;;;;;;17.15;82.90;101074.16;5055193;28;20546;-56
2022/06/05 11:21:50;;;;;;;1.23;0.63;;;;;;;17.14;82.92;101065.22;5051022;28;20037;-56
2022/06/05 11:24:48;;;;;;;0.80;0.63;;;;;;;17.21;82.19;101066.94;5050720;28;20025;-55
2022/06/05 11:27:19;;;;;;;1.15;0.73;;;;;;;17.21;81.98;101073.19;5051361;28;20033;-56
2022/06/05 11:30:02;;;;;;;0.98;0.77;;;;;;;17.09;82.60;101086.78;5050523;28;20029;-55
2022/06/05 11:32:45;;;;;;;1.98;1.08;;;;;;;17.14;82.51;101092.28;5051882;28;20102;-56
2022/06/05 11:35:53;;;;;;;1.02;0.75;;;;;;;17.22;82.31;101082.97;5050280;28;20052;-56
2022/06/05 11:38:27;;;;;;;1.20;0.85;;;;;;;17.18;82.80;101072.88;5031487;28;20080;-56
2022/06/05 11:40:58;;;;;;;1.33;0.85;;;;;;;17.28;82.15;101067.63;5031344;28;20033;-56
2022/06/05 11:43:36;;;;;;;1.00;0.70;;;;;;;17.34;81.63;101070.19;5047857;28;20029;-56
2022/06/05 11:46:11;;;;;;;1.55;0.90;;;;;;;17.40;81.35;101066.50;5032128;28;20037;-55
2022/06/05 11:49:05;;;;;;;3.20;0.95;;;;;;;17.34;81.77;101066.66;5031660;28;20052;-56
2022/06/05 11:51:59;;;;;;;2.03;0.85;;;;;;;17.33;81.90;101070.44;5031439;28;20072;-56
2022/06/05 11:54:57;;;;;;;2.22;0.80;;;;;;;17.30;81.87;101063.63;5034535;28;20393;-56
2022/06/05 11:57:42;;;;;;;1.38;0.68;;;;;;;17.31;81.89;101061.72;5034261;28;20038;-55
2022/06/05 12:00:16;;;;;;;0.88;0.50;;;;;;;17.21;82.69;101053.44;5032577;28;20366;-56
2022/06/05 12:03:00;;;;;;;1.48;0.68;;;;;;;17.33;82.15;101054.19;5031987;28;20033;-56
2022/06/05 12:05:44;;;;;;;0.88;0.50;;;;;;;17.36;81.62;101050.97;5031477;28;20025;-56
2022/06/05 12:08:37;;;;;;;1.38;0.50;;;;;;;17.26;81.83;101043.50;5031932;28;20426;-55
2022/06/05 12:11:16;;;;;;;1.42;0.80;;;;;;;17.26;82.23;101040.81;5030416;28;20073;-55
2022/06/05 12:13:47;;;;;;;1.70;0.77;;;;;;;17.33;81.97;101035.25;5049779;28;20112;-56
2022/06/05 12:16:28;;;;;;;1.45;0.50;;;;;;;17.22;82.00;101041.56;5050302;28;20400;-55